Time;durP1;ratioP1;P1;durP2;ratioP2;P2;SDS_P1;SDS_P2;PMS_P1;PMS_P2;Temp;Humidity;BMP_temperature;BMP_pressure;BME280_temperature;BME280_humidity;BME280_pressure;Samples;Min_cycle;Max_cycle;Signal;HPM_P1;HPM_P2
2023/08/16 00:00:28;;;;;;;7.67;5.30;;;22.10;78.10;;;;;;5026036;28;20210;-80
2023/08/16 00:02:53;;;;;;;7.37;5.10;;;22.20;78.10;;;;;;5020561;28;20181;-79
2023/08/16 00:05:19;;;;;;;8.57;5.67;;;22.10;78.10;;;;;;5026054;28;20268;-79
2023/08/16 00:07:45;;;;;;;68.10;30.60;;;22.20;78.10;;;;;;5029263;28;20192;-81
2023/08/16 00:10:11;;;;;;;52.17;24.57;;;22.10;78.00;;;;;;5027611;28;20464;-82
2023/08/16 00:12:38;;;;;;;13.87;9.10;;;22.20;78.30;;;;;;5031661;28;20185;-79
2023/08/16 00:15:06;;;;;;;14.67;7.43;;;22.10;78.30;;;;;;5032479;28;20504;-79
2023/08/16 00:17:34;;;;;;;15.10;7.40;;;22.20;78.10;;;;;;5032700;28;20429;-79
2023/08/16 00:20:00;;;;;;;14.97;8.03;;;22.20;78.00;;;;;;5030926;28;20432;-79
2023/08/16 00:22:26;;;;;;;12.63;7.30;;;22.20;78.10;;;;;;5031393;28;20424;-80
2023/08/16 00:24:52;;;;;;;7.83;5.20;;;22.20;78.10;;;;;;5018344;28;20452;-81
2023/08/16 00:27:17;;;;;;;10.30;6.10;;;22.20;78.00;;;;;;5037289;28;20193;-79
2023/08/16 00:29:43;;;;;;;9.50;5.93;;;22.20;78.10;;;;;;5030774;28;20188;-80
2023/08/16 00:32:10;;;;;;;12.70;6.87;;;22.30;78.00;;;;;;5030263;28;20286;-80
2023/08/16 00:34:36;;;;;;;9.97;7.07;;;22.40;78.10;;;;;;5006256;28;20426;-81
2023/08/16 00:37:02;;;;;;;11.60;5.93;;;22.50;78.30;;;;;;5030878;28;20499;-78
2023/08/16 00:39:28;;;;;;;11.57;6.43;;;22.50;78.40;;;;;;5016868;28;20217;-80
2023/08/16 00:41:55;;;;;;;10.93;6.57;;;22.50;78.60;;;;;;5012127;28;20499;-80
2023/08/16 00:44:20;;;;;;;8.20;5.83;;;22.50;78.30;;;;;;5035118;28;20484;-81
2023/08/16 00:46:46;;;;;;;9.03;5.90;;;22.60;77.80;;;;;;5036519;28;20421;-80
2023/08/16 00:49:15;;;;;;;11.37;6.33;;;22.50;77.40;;;;;;5030566;28;20251;-79
2023/08/16 00:51:42;;;;;;;11.73;6.23;;;22.60;78.10;;;;;;5028141;28;20235;-80
2023/08/16 00:54:08;;;;;;;10.73;6.37;;;22.60;78.10;;;;;;5034244;28;20484;-81
2023/08/16 00:56:35;;;;;;;9.23;5.90;;;22.50;78.70;;;;;;5034959;28;20486;-79
2023/08/16 00:59:01;;;;;;;10.23;6.53;;;22.50;79.60;;;;;;5036395;28;20449;-80
2023/08/16 01:01:28;;;;;;;10.03;6.43;;;22.60;79.90;;;;;;5034965;28;20457;-81
2023/08/16 01:03:54;;;;;;;10.80;6.10;;;22.60;80.00;;;;;;5031281;28;20463;-80
2023/08/16 01:06:20;;;;;;;10.00;6.60;;;22.50;80.20;;;;;;5033599;28;20440;-79
2023/08/16 01:08:47;;;;;;;9.97;5.97;;;22.40;80.20;;;;;;5034283;28;20437;-80
2023/08/16 01:11:22;;;;;;;9.57;5.90;;;22.40;80.80;;;;;;5014803;28;20460;-80
2023/08/16 01:14:07;;;;;;;8.60;5.07;;;22.40;80.80;;;;;;5034071;28;20515;-79
2023/08/16 01:16:35;;;;;;;10.10;5.70;;;22.30;81.20;;;;;;5032842;28;20489;-80
2023/08/16 01:19:09;;;;;;;8.83;5.80;;;22.30;81.40;;;;;;5029090;28;20479;-79
2023/08/16 01:21:51;;;;;;;10.13;6.80;;;22.30;81.20;;;;;;5028269;28;20460;-79
2023/08/16 01:24:33;;;;;;;7.67;5.70;;;22.20;81.10;;;;;;5026863;28;20418;-78
2023/08/16 01:27:01;;;;;;;7.70;4.87;;;22.10;81.20;;;;;;5023956;28;20433;-81
2023/08/16 01:29:28;;;;;;;8.17;5.10;;;22.10;81.50;;;;;;5030911;28;20528;-80
2023/08/16 01:31:54;;;;;;;8.30;6.10;;;22.10;81.50;;;;;;5030480;28;20463;-79
2023/08/16 01:34:21;;;;;;;8.47;5.43;;;22.10;81.40;;;;;;5032676;28;20450;-79
2023/08/16 01:36:48;;;;;;;8.90;5.63;;;22.00;81.70;;;;;;5034774;28;20288;-80
2023/08/16 01:39:14;;;;;;;8.67;5.83;;;21.90;81.80;;;;;;5018061;28;20452;-80
2023/08/16 01:41:48;;;;;;;9.73;6.03;;;21.90;81.90;;;;;;5028855;28;20508;-79
2023/08/16 01:44:18;;;;;;;12.70;5.87;;;21.90;81.90;;;;;;5014755;28;20427;-80
2023/08/16 01:46:45;;;;;;;10.77;6.50;;;21.90;82.10;;;;;;5035596;28;20463;-79
2023/08/16 01:49:12;;;;;;;6.90;5.27;;;21.90;81.70;;;;;;5014535;28;20443;-79
2023/08/16 01:51:38;;;;;;;9.33;6.00;;;21.80;82.10;;;;;;5012274;28;20468;-80
2023/08/16 01:54:04;;;;;;;8.23;5.57;;;21.80;82.20;;;;;;5030795;28;20428;-78
2023/08/16 01:56:32;;;;;;;7.70;5.57;;;21.70;82.50;;;;;;5031689;28;20482;-81
2023/08/16 01:59:01;;;;;;;8.70;6.40;;;21.70;82.70;;;;;;5028107;28;20428;-81
2023/08/16 02:01:28;;;;;;;9.80;5.90;;;21.60;82.80;;;;;;5010370;28;20590;-81
2023/08/16 02:03:55;;;;;;;12.50;6.10;;;21.60;82.80;;;;;;5025395;28;20462;-81
2023/08/16 02:06:22;;;;;;;13.57;6.50;;;21.50;82.80;;;;;;5020714;28;20423;-81
2023/08/16 02:08:49;;;;;;;9.80;5.90;;;21.50;82.80;;;;;;5014502;28;20996;-81
2023/08/16 02:11:15;;;;;;;8.50;5.97;;;21.40;82.80;;;;;;5015426;28;20479;-80
2023/08/16 02:13:41;;;;;;;10.40;6.27;;;21.40;83.10;;;;;;5017166;28;20442;-80
2023/08/16 02:16:08;;;;;;;9.03;6.10;;;21.30;83.30;;;;;;5027096;28;20207;-81
2023/08/16 02:18:34;;;;;;;9.63;6.57;;;21.30;83.70;;;;;;5025082;28;20209;-80
2023/08/16 02:20:59;;;;;;;8.13;5.53;;;21.30;83.70;;;;;;5022907;28;20482;-82
2023/08/16 02:23:26;;;;;;;10.97;6.47;;;21.20;83.80;;;;;;5011965;28;20214;-81
2023/08/16 02:25:51;;;;;;;7.00;5.43;;;21.20;83.80;;;;;;5026806;28;20207;-79
2023/08/16 02:28:17;;;;;;;10.00;6.17;;;21.10;84.00;;;;;;5024901;28;20431;-80
2023/08/16 02:30:44;;;;;;;7.60;5.50;;;21.00;84.10;;;;;;5011704;28;20307;-80
2023/08/16 02:33:09;;;;;;;8.00;5.60;;;21.00;84.40;;;;;;5016353;28;20494;-81
2023/08/16 02:35:37;;;;;;;8.50;6.23;;;20.90;84.70;;;;;;5017480;28;20677;-79
2023/08/16 02:38:03;;;;;;;9.10;6.27;;;20.90;84.90;;;;;;5020405;28;21640;-82
2023/08/16 02:40:29;;;;;;;10.10;6.93;;;20.90;85.00;;;;;;5011964;28;20225;-81
2023/08/16 02:42:55;;;;;;;7.67;5.67;;;20.90;85.20;;;;;;5016361;28;20199;-81
2023/08/16 02:45:21;;;;;;;11.20;6.60;;;20.80;85.50;;;;;;5021584;28;20789;-80
2023/08/16 02:47:48;;;;;;;12.33;7.40;;;20.80;85.50;;;;;;5018952;28;20222;-82
2023/08/16 02:50:13;;;;;;;10.03;6.30;;;20.80;85.50;;;;;;5014089;28;21001;-82
2023/08/16 02:52:39;;;;;;;10.20;6.47;;;20.70;85.70;;;;;;5020841;28;20439;-81
2023/08/16 02:55:05;;;;;;;12.90;6.10;;;20.70;85.90;;;;;;5029818;28;20175;-81
2023/08/16 02:57:32;;;;;;;8.30;6.23;;;20.70;85.90;;;;;;5027290;28;20874;-79
2023/08/16 02:59:57;;;;;;;9.90;6.30;;;20.70;85.60;;;;;;5023035;28;20418;-81
2023/08/16 03:02:25;;;;;;;7.50;5.80;;;20.70;85.70;;;;;;5027140;28;20450;-80
2023/08/16 03:04:51;;;;;;;9.90;6.07;;;20.70;85.70;;;;;;4985632;28;20568;-80
2023/08/16 03:07:17;;;;;;;8.03;5.47;;;20.70;85.90;;;;;;5020112;28;20419;-80
2023/08/16 03:09:44;;;;;;;9.70;5.97;;;20.70;85.70;;;;;;5033427;28;20443;-78
2023/08/16 03:12:10;;;;;;;9.13;6.13;;;20.70;85.60;;;;;;5024732;28;20433;-79
2023/08/16 03:14:35;;;;;;;8.57;6.40;;;20.70;85.70;;;;;;5033412;28;20422;-79
2023/08/16 03:17:01;;;;;;;10.07;5.97;;;20.70;85.70;;;;;;5023709;28;20207;-81
2023/08/16 03:19:28;;;;;;;12.80;6.50;;;20.70;85.60;;;;;;5029114;28;20190;-78
2023/08/16 03:21:56;;;;;;;6.97;5.60;;;20.70;85.60;;;;;;5029708;28;20216;-77
2023/08/16 03:24:22;;;;;;;8.50;6.67;;;20.60;85.70;;;;;;5027871;28;20432;-79
2023/08/16 03:26:48;;;;;;;7.57;5.67;;;20.60;85.90;;;;;;5027264;28;20545;-79
2023/08/16 03:29:13;;;;;;;8.57;6.00;;;20.60;86.00;;;;;;5024231;28;20419;-79
2023/08/16 03:31:51;;;;;;;8.40;5.67;;;20.60;86.20;;;;;;5024630;28;20271;-81
2023/08/16 03:34:17;;;;;;;10.03;5.87;;;20.50;86.00;;;;;;5004573;28;20206;-78
2023/08/16 03:36:42;;;;;;;8.60;5.83;;;20.60;86.20;;;;;;5028635;28;20466;-80
2023/08/16 03:39:09;;;;;;;7.13;5.40;;;20.60;85.50;;;;;;5027820;28;20194;-81
2023/08/16 03:41:37;;;;;;;7.60;5.60;;;20.60;85.20;;;;;;5023091;28;20269;-79
2023/08/16 03:44:06;;;;;;;8.50;5.50;;;20.50;85.30;;;;;;5031549;28;20432;-78
2023/08/16 03:46:35;;;;;;;7.47;5.80;;;20.50;85.60;;;;;;5008915;28;20432;-80
2023/08/16 03:49:03;;;;;;;13.73;6.23;;;20.50;85.70;;;;;;5029259;28;20484;-81
2023/08/16 03:51:28;;;;;;;8.03;5.93;;;20.40;85.70;;;;;;5024392;28;20465;-81
2023/08/16 03:53:54;;;;;;;9.30;6.23;;;20.40;86.00;;;;;;5028831;28;20437;-79
2023/08/16 03:56:20;;;;;;;8.63;6.50;;;20.40;86.00;;;;;;5030001;28;20959;-78
2023/08/16 03:58:46;;;;;;;8.73;5.30;;;20.40;86.50;;;;;;5020456;28;20187;-79
2023/08/16 04:01:11;;;;;;;9.63;6.67;;;20.30;86.60;;;;;;5016304;28;20552;-80
2023/08/16 04:03:37;;;;;;;11.90;6.80;;;20.40;86.60;;;;;;5017984;28;20182;-80
2023/08/16 04:06:06;;;;;;;10.20;6.70;;;20.40;86.80;;;;;;5022867;28;20203;-79
2023/08/16 04:08:32;;;;;;;10.03;6.00;;;20.50;86.30;;;;;;5021078;28;20195;-81
2023/08/16 04:10:57;;;;;;;7.10;5.70;;;20.40;85.20;;;;;;5029914;28;20449;-82
2023/08/16 04:13:24;;;;;;;7.13;5.40;;;20.30;85.50;;;;;;5027496;28;20200;-81
2023/08/16 04:15:51;;;;;;;8.07;6.20;;;20.30;85.90;;;;;;5026775;28;20629;-80
2023/08/16 04:18:17;;;;;;;8.90;6.43;;;20.30;86.00;;;;;;5024851;28;20461;-81
2023/08/16 04:20:42;;;;;;;12.97;6.67;;;20.20;86.20;;;;;;5025474;28;20480;-81
2023/08/16 04:23:08;;;;;;;10.23;6.13;;;20.30;86.50;;;;;;5027652;28;20267;-81
2023/08/16 04:25:34;;;;;;;7.87;5.20;;;20.30;86.50;;;;;;5025866;28;20216;-80
2023/08/16 04:28:00;;;;;;;8.50;6.00;;;20.30;86.50;;;;;;5022300;28;20188;-80
2023/08/16 04:30:25;;;;;;;11.03;6.07;;;20.30;86.50;;;;;;5022253;28;20501;-80
2023/08/16 04:32:51;;;;;;;9.87;6.40;;;20.40;86.30;;;;;;5024560;28;20588;-80
2023/08/16 04:35:17;;;;;;;11.50;6.30;;;20.40;86.20;;;;;;5025983;28;20225;-79
2023/08/16 04:37:42;;;;;;;9.30;6.50;;;20.50;85.20;;;;;;5021654;28;20184;-82
2023/08/16 04:40:10;;;;;;;14.50;6.40;;;20.50;84.90;;;;;;5018610;28;20273;-80
2023/08/16 04:42:37;;;;;;;11.00;6.43;;;20.60;84.70;;;;;;5002038;28;20214;-80
2023/08/16 04:45:05;;;;;;;8.67;5.60;;;20.60;84.60;;;;;;5025667;28;20443;-80
2023/08/16 04:47:30;;;;;;;9.30;6.63;;;20.60;84.40;;;;;;5014920;28;20418;-82
2023/08/16 04:49:56;;;;;;;9.23;5.60;;;20.60;84.40;;;;;;5004341;28;20460;-80
2023/08/16 04:52:24;;;;;;;10.00;6.03;;;20.60;84.40;;;;;;5028372;28;20214;-82
2023/08/16 04:54:52;;;;;;;7.80;5.30;;;20.70;84.30;;;;;;5029682;28;20246;-83
2023/08/16 04:57:19;;;;;;;7.73;5.90;;;20.70;84.30;;;;;;5013074;28;20489;-82
2023/08/16 04:59:46;;;;;;;10.37;5.60;;;20.70;84.30;;;;;;5025286;28;20453;-85
2023/08/16 05:02:12;;;;;;;9.53;5.60;;;20.80;84.30;;;;;;5019118;28;20453;-83
2023/08/16 05:04:37;;;;;;;10.67;5.70;;;20.80;84.30;;;;;;5020717;28;20465;-83
2023/08/16 05:07:05;;;;;;;12.57;5.67;;;20.80;84.00;;;;;;5020868;28;20187;-83
2023/08/16 05:09:30;;;;;;;9.40;6.00;;;20.90;83.80;;;;;;5017709;28;20287;-80
2023/08/16 05:11:56;;;;;;;8.43;5.47;;;21.00;83.60;;;;;;5009045;28;20459;-79
2023/08/16 05:14:21;;;;;;;6.70;5.60;;;21.00;83.10;;;;;;5020906;28;20206;-80
2023/08/16 05:16:47;;;;;;;11.33;6.53;;;21.10;83.00;;;;;;5019540;28;20219;-79
2023/08/16 05:19:13;;;;;;;9.80;4.53;;;21.10;82.70;;;;;;5000404;28;20197;-79
2023/08/16 05:21:38;;;;;;;10.67;5.90;;;21.10;82.50;;;;;;5010810;28;20213;-80
2023/08/16 05:24:04;;;;;;;10.60;5.50;;;21.20;82.20;;;;;;5017022;28;21296;-78
2023/08/16 05:26:31;;;;;;;11.00;6.50;;;21.20;82.20;;;;;;5024314;28;20192;-79
2023/08/16 05:28:58;;;;;;;8.50;6.20;;;21.30;82.10;;;;;;5024481;28;20184;-80
2023/08/16 05:31:24;;;;;;;12.20;7.00;;;21.30;81.80;;;;;;5022660;28;20455;-78
2023/08/16 05:33:49;;;;;;;9.53;6.13;;;21.30;81.80;;;;;;5022028;28;20436;-77
2023/08/16 05:36:16;;;;;;;9.50;6.70;;;21.40;81.80;;;;;;5022946;28;20472;-80
2023/08/16 05:38:41;;;;;;;10.13;6.37;;;21.50;81.50;;;;;;5021647;28;20431;-80
2023/08/16 05:41:07;;;;;;;11.40;6.37;;;21.60;81.10;;;;;;5017333;28;20555;-78
2023/08/16 05:43:33;;;;;;;10.77;6.27;;;21.80;80.60;;;;;;5020043;28;20203;-78
2023/08/16 05:45:59;;;;;;;12.27;6.23;;;21.80;80.50;;;;;;5021435;28;20193;-80
2023/08/16 05:48:24;;;;;;;11.70;6.30;;;21.90;80.30;;;;;;5024133;28;20212;-78
2023/08/16 05:50:50;;;;;;;10.80;6.70;;;21.90;80.00;;;;;;5021082;28;20459;-80
2023/08/16 05:53:16;;;;;;;11.10;7.10;;;22.00;79.90;;;;;;5005201;28;20661;-82
2023/08/16 05:55:41;;;;;;;10.10;6.30;;;22.10;79.70;;;;;;5020574;28;20215;-80
2023/08/16 05:58:08;;;;;;;11.37;6.37;;;22.20;79.30;;;;;;5022404;28;20215;-80
2023/08/16 06:00:34;;;;;;;9.50;6.93;;;22.30;78.70;;;;;;5018875;28;20226;-79
2023/08/16 06:03:01;;;;;;;13.83;7.70;;;22.40;78.10;;;;;;5019563;28;20461;-82
2023/08/16 06:05:26;;;;;;;39.90;24.20;;;22.30;78.40;;;;;;5026459;28;20804;-80
2023/08/16 06:07:52;;;;;;;14.27;8.73;;;22.40;78.40;;;;;;5023970;28;20241;-79
2023/08/16 06:10:20;;;;;;;15.10;11.07;;;22.60;78.40;;;;;;5021146;28;20227;-81
2023/08/16 06:12:55;;;;;;;16.67;9.30;;;22.80;78.10;;;;;;5013063;28;20195;-81
2023/08/16 06:15:21;;;;;;;9.60;5.90;;;23.20;78.00;;;;;;4994728;28;20484;-81
2023/08/16 06:17:47;;;;;;;9.67;6.47;;;24.00;75.80;;;;;;5017036;28;20427;-80
2023/08/16 06:20:13;;;;;;;9.47;6.10;;;24.80;72.10;;;;;;5018243;28;20772;-79
2023/08/16 06:22:40;;;;;;;7.83;5.57;;;25.00;70.20;;;;;;5017459;28;20428;-79
2023/08/16 06:25:09;;;;;;;7.67;5.67;;;24.90;69.70;;;;;;5027795;28;20414;-80
2023/08/16 06:27:36;;;;;;;8.80;5.60;;;24.70;69.80;;;;;;5029212;28;20411;-79
2023/08/16 06:30:03;;;;;;;6.93;5.07;;;24.60;70.50;;;;;;5023756;28;20477;-79
2023/08/16 06:32:33;;;;;;;10.57;6.10;;;24.50;70.70;;;;;;5022037;28;20448;-80
2023/08/16 06:35:00;;;;;;;8.27;5.67;;;24.40;70.80;;;;;;5030215;28;20430;-79
2023/08/16 06:37:25;;;;;;;9.07;6.07;;;24.20;71.40;;;;;;5043434;23;20523;-82
2023/08/16 06:39:52;;;;;;;10.23;6.00;;;24.00;72.30;;;;;;5038907;28;20301;-80
2023/08/16 06:42:18;;;;;;;7.60;5.57;;;24.00;72.60;;;;;;5022226;28;20204;-82
2023/08/16 06:44:44;;;;;;;8.63;6.60;;;23.90;72.70;;;;;;5029292;28;20548;-82
2023/08/16 06:47:10;;;;;;;12.93;7.23;;;23.90;72.40;;;;;;5025560;28;20445;-81
2023/08/16 06:49:42;;;;;;;12.43;7.97;;;23.80;72.70;;;;;;5013381;28;20451;-81
2023/08/16 06:52:07;;;;;;;9.33;6.60;;;23.60;73.30;;;;;;5015565;28;20203;-83
2023/08/16 06:54:35;;;;;;;9.63;6.53;;;23.60;73.90;;;;;;5025464;28;20524;-81
2023/08/16 06:57:01;;;;;;;8.37;6.60;;;23.60;73.70;;;;;;5026502;28;20255;-82
2023/08/16 06:59:29;;;;;;;10.97;7.63;;;23.60;73.90;;;;;;5033048;28;20438;-83
2023/08/16 07:01:56;;;;;;;12.37;8.10;;;23.60;73.90;;;;;;5022288;28;20509;-82
2023/08/16 07:04:23;;;;;;;11.27;7.73;;;23.70;74.20;;;;;;5025873;28;20748;-82
2023/08/16 07:06:49;;;;;;;12.00;7.53;;;23.70;74.20;;;;;;5033488;28;20495;-83
2023/08/16 07:09:35;;;;;;;14.23;8.47;;;23.80;73.90;;;;;;5037481;28;20425;-84
2023/08/16 07:12:03;;;;;;;11.57;7.10;;;23.70;73.50;;;;;;5032150;28;20292;-80
2023/08/16 07:14:29;;;;;;;12.27;6.50;;;23.60;74.00;;;;;;5034789;28;20491;-82
2023/08/16 07:16:57;;;;;;;11.70;7.70;;;23.70;73.90;;;;;;5035425;28;20499;-80
2023/08/16 07:19:23;;;;;;;11.20;8.10;;;23.80;73.30;;;;;;5024591;28;20447;-81
2023/08/16 07:21:48;;;;;;;13.67;7.63;;;23.70;73.00;;;;;;5022596;28;20553;-82
2023/08/16 07:24:19;;;;;;;13.27;9.10;;;23.70;73.50;;;;;;5025447;28;20424;-82
2023/08/16 07:26:45;;;;;;;10.50;7.80;;;23.80;73.20;;;;;;5036253;28;20198;-84
2023/08/16 07:29:11;;;;;;;10.87;7.07;;;24.00;72.70;;;;;;5022964;28;20455;-81
2023/08/16 07:31:43;;;;;;;11.47;6.77;;;24.00;72.60;;;;;;5029251;28;20223;-83
2023/08/16 07:34:08;;;;;;;10.40;8.10;;;24.00;72.40;;;;;;5028135;28;20783;-80
2023/08/16 07:36:34;;;;;;;11.37;7.67;;;24.10;72.30;;;;;;5029255;28;20470;-81
2023/08/16 07:39:02;;;;;;;11.43;7.83;;;24.20;71.80;;;;;;5028406;28;20204;-82
2023/08/16 07:41:27;;;;;;;12.77;7.77;;;24.10;71.80;;;;;;5019294;28;20230;-83
2023/08/16 07:43:54;;;;;;;9.43;7.10;;;24.20;71.60;;;;;;5023638;28;20470;-83
2023/08/16 07:46:19;;;;;;;8.90;6.83;;;24.30;70.70;;;;;;5024301;28;20197;-81
2023/08/16 07:48:46;;;;;;;12.70;7.77;;;24.20;70.50;;;;;;5034352;28;20454;-81
2023/08/16 07:51:12;;;;;;;15.00;8.53;;;24.20;70.50;;;;;;5033520;28;20578;-81
2023/08/16 07:53:39;;;;;;;10.87;7.03;;;24.30;70.50;;;;;;5028256;28;20498;-83
2023/08/16 07:56:05;;;;;;;9.97;7.70;;;24.20;70.50;;;;;;5036243;28;20462;-83
2023/08/16 07:58:30;;;;;;;11.13;7.50;;;24.40;70.40;;;;;;5038623;28;20449;-81
2023/08/16 08:00:57;;;;;;;13.10;7.27;;;24.50;70.20;;;;;;5033026;28;20231;-83
2023/08/16 08:03:22;;;;;;;11.03;8.00;;;24.40;70.80;;;;;;5028426;28;20471;-77
2023/08/16 08:05:48;;;;;;;10.20;8.10;;;24.40;71.00;;;;;;5012900;28;20186;-78
2023/08/16 08:08:14;;;;;;;10.20;7.73;;;24.50;71.10;;;;;;5024721;28;20185;-77
2023/08/16 08:10:44;;;;;;;19.03;12.73;;;24.60;71.30;;;;;;5009687;28;20691;-77
2023/08/16 08:13:10;;;;;;;15.33;11.40;;;24.70;71.00;;;;;;5021838;28;20460;-79
2023/08/16 08:15:36;;;;;;;11.93;8.10;;;24.80;70.80;;;;;;5020462;28;21045;-79
2023/08/16 08:18:01;;;;;;;13.47;8.90;;;24.90;70.80;;;;;;5023257;28;20448;-78
2023/08/16 08:20:27;;;;;;;10.70;8.47;;;25.00;70.40;;;;;;5013831;28;20211;-76
2023/08/16 08:22:52;;;;;;;21.70;11.10;;;25.10;70.20;;;;;;5015501;28;20176;-78
2023/08/16 08:25:18;;;;;;;14.00;10.00;;;25.10;70.10;;;;;;5035134;28;20271;-78
2023/08/16 08:27:44;;;;;;;17.80;11.40;;;25.10;70.10;;;;;;5036700;28;20201;-78
2023/08/16 08:30:10;;;;;;;15.33;10.23;;;25.20;70.10;;;;;;5025740;28;20206;-77
2023/08/16 08:32:35;;;;;;;11.60;8.37;;;25.20;69.80;;;;;;5018850;28;20183;-78
2023/08/16 08:35:04;;;;;;;14.33;9.53;;;25.10;70.40;;;;;;5011139;28;20446;-78
2023/08/16 08:37:31;;;;;;;14.10;8.77;;;25.20;70.20;;;;;;5021513;28;20679;-79
2023/08/16 08:39:57;;;;;;;13.37;9.53;;;25.20;70.10;;;;;;5011318;28;20493;-78
2023/08/16 08:42:23;;;;;;;209.30;122.93;;;25.30;69.90;;;;;;5012969;28;20438;-75
2023/08/16 08:44:49;;;;;;;15.67;9.87;;;25.40;70.10;;;;;;5014348;28;20322;-77
2023/08/16 08:47:15;;;;;;;14.33;8.80;;;25.40;69.80;;;;;;5011322;28;20485;-78
2023/08/16 08:49:41;;;;;;;11.90;9.17;;;25.50;69.20;;;;;;5012115;28;20428;-78
2023/08/16 08:52:07;;;;;;;10.63;7.73;;;25.40;69.40;;;;;;5004246;28;20709;-77
2023/08/16 08:54:32;;;;;;;15.37;10.07;;;25.50;69.50;;;;;;5012052;28;20201;-82
2023/08/16 08:57:02;;;;;;;13.53;9.07;;;25.40;69.20;;;;;;5013685;28;20494;-84
2023/08/16 08:59:30;;;;;;;12.50;8.00;;;25.50;69.50;;;;;;5034672;28;20189;-82
2023/08/16 09:01:58;;;;;;;16.20;9.07;;;25.70;69.10;;;;;;5025152;28;20834;-81
2023/08/16 09:04:26;;;;;;;13.53;8.70;;;25.90;68.60;;;;;;5027623;28;20444;-80
2023/08/16 09:06:52;;;;;;;9.63;8.67;;;26.10;68.00;;;;;;5032088;28;20427;-81
2023/08/16 09:09:18;;;;;;;12.33;7.93;;;26.20;67.50;;;;;;5031816;28;20468;-81
2023/08/16 09:11:43;;;;;;;11.20;8.83;;;26.30;67.60;;;;;;5026486;28;20475;-81
2023/08/16 09:14:09;;;;;;;11.87;8.67;;;26.20;67.00;;;;;;5027296;28;20427;-82
2023/08/16 09:16:35;;;;;;;12.80;8.43;;;26.40;67.30;;;;;;5034797;28;20513;-81
2023/08/16 09:19:03;;;;;;;13.80;8.50;;;26.60;66.90;;;;;;5028912;28;20191;-80
2023/08/16 09:21:30;;;;;;;12.70;8.27;;;26.70;66.30;;;;;;5025457;28;20211;-80
2023/08/16 09:24:01;;;;;;;10.47;8.80;;;26.80;66.10;;;;;;5025456;28;20422;-82
2023/08/16 09:26:27;;;;;;;14.03;8.60;;;26.50;66.90;;;;;;5027610;28;20432;-82
2023/08/16 09:29:00;;;;;;;12.80;9.10;;;26.70;66.90;;;;;;5018897;28;20425;-83
2023/08/16 09:31:37;;;;;;;11.97;8.73;;;26.80;66.10;;;;;;5029544;28;20543;-82
2023/08/16 09:34:03;;;;;;;11.97;8.33;;;27.00;65.60;;;;;;5024362;28;20479;-81
2023/08/16 09:36:30;;;;;;;12.53;9.30;;;27.00;65.70;;;;;;5034421;28;20467;-81
2023/08/16 09:39:05;;;;;;;11.50;9.10;;;27.00;65.60;;;;;;5033548;28;20431;-81
2023/08/16 09:41:31;;;;;;;13.83;8.60;;;27.10;65.00;;;;;;5023403;28;20467;-79
2023/08/16 09:44:07;;;;;;;11.10;8.50;;;27.40;64.40;;;;;;5032320;28;20432;-81
2023/08/16 09:46:34;;;;;;;11.10;7.90;;;27.60;63.90;;;;;;5031151;28;20450;-82
2023/08/16 09:49:08;;;;;;;12.37;8.20;;;27.50;64.10;;;;;;5033629;28;20433;-80
2023/08/16 09:51:35;;;;;;;10.67;8.53;;;27.70;63.70;;;;;;5031291;28;20539;-81
2023/08/16 09:54:07;;;;;;;11.67;8.43;;;27.50;64.20;;;;;;5033057;28;20415;-81
2023/08/16 09:56:34;;;;;;;12.13;8.37;;;27.30;64.70;;;;;;5030310;28;20477;-80
2023/08/16 09:59:02;;;;;;;13.33;8.53;;;27.50;64.80;;;;;;5041191;28;20428;-80
2023/08/16 10:01:30;;;;;;;12.70;8.80;;;27.60;63.90;;;;;;5027884;28;20538;-80
2023/08/16 10:03:58;;;;;;;15.47;9.57;;;27.90;63.50;;;;;;5027136;28;20435;-81
2023/08/16 10:06:24;;;;;;;12.70;9.40;;;27.70;63.80;;;;;;5028404;28;20443;-80
2023/08/16 10:08:52;;;;;;;12.50;8.73;;;27.60;64.20;;;;;;5035652;28;20473;-81
2023/08/16 10:11:23;;;;;;;11.30;8.53;;;27.70;64.50;;;;;;5024976;28;20833;-80
2023/08/16 10:13:48;;;;;;;16.50;10.07;;;28.00;63.90;;;;;;5027733;28;20509;-80
2023/08/16 10:16:15;;;;;;;13.60;10.70;;;28.00;63.70;;;;;;5022113;28;20476;-81
2023/08/16 10:18:46;;;;;;;15.80;9.80;;;27.90;63.50;;;;;;5029857;28;20425;-81
2023/08/16 10:21:16;;;;;;;13.57;8.47;;;27.60;64.10;;;;;;5018992;28;20522;-80
2023/08/16 10:23:44;;;;;;;13.00;9.17;;;27.80;64.10;;;;;;5032705;28;20533;-81
2023/08/16 10:26:13;;;;;;;12.27;9.20;;;28.00;63.70;;;;;;5032436;28;20433;-80
2023/08/16 10:28:46;;;;;;;13.30;9.17;;;28.00;63.50;;;;;;5054870;28;20445;-81
2023/08/16 10:31:14;;;;;;;11.87;9.23;;;28.20;63.70;;;;;;5034818;28;20555;-81
2023/08/16 10:33:44;;;;;;;15.97;9.53;;;28.70;62.90;;;;;;5033264;28;20456;-79
2023/08/16 10:36:12;;;;;;;11.47;8.57;;;29.00;61.70;;;;;;5036097;28;20484;-82
2023/08/16 10:38:44;;;;;;;11.83;8.50;;;29.50;60.60;;;;;;5027281;28;20460;-80
2023/08/16 10:41:13;;;;;;;16.23;8.93;;;29.70;59.90;;;;;;5029180;28;20464;-82
2023/08/16 10:43:52;;;;;;;13.77;8.47;;;29.30;60.70;;;;;;5030823;28;20904;-81
2023/08/16 10:46:37;;;;;;;12.70;10.57;;;29.20;60.90;;;;;;5025818;28;20441;-81
2023/08/16 10:49:14;;;;;;;15.83;9.90;;;29.10;61.00;;;;;;5026866;28;20421;-81
2023/08/16 10:51:53;;;;;;;12.00;9.20;;;29.10;61.50;;;;;;5025076;28;20497;-83
2023/08/16 10:54:41;;;;;;;13.03;8.80;;;29.40;60.70;;;;;;5026583;28;20516;-82
2023/08/16 10:57:09;;;;;;;14.00;10.20;;;29.90;60.30;;;;;;5033584;28;20523;-80
2023/08/16 10:59:39;;;;;;;10.60;9.20;;;30.20;59.10;;;;;;5043732;28;20471;-80
2023/08/16 11:02:15;;;;;;;9.70;8.47;;;30.00;59.60;;;;;;5025871;28;20460;-81
2023/08/16 11:04:44;;;;;;;13.67;9.07;;;30.10;59.60;;;;;;5030210;28;20425;-80
2023/08/16 11:07:12;;;;;;;10.50;8.33;;;30.50;58.70;;;;;;5025884;28;20417;-81
2023/08/16 11:09:51;;;;;;;13.00;9.13;;;30.60;58.50;;;;;;5034504;28;20449;-80
2023/08/16 11:12:17;;;;;;;10.27;7.83;;;30.90;58.40;;;;;;5003764;28;20441;-81
2023/08/16 11:14:46;;;;;;;11.17;9.10;;;31.30;57.80;;;;;;5025067;28;20457;-79
2023/08/16 11:17:15;;;;;;;15.87;9.20;;;31.50;58.20;;;;;;5030561;28;20209;-81
2023/08/16 11:19:46;;;;;;;12.90;8.87;;;30.90;59.30;;;;;;5031695;28;20445;-81
2023/08/16 11:22:12;;;;;;;11.87;8.53;;;30.00;60.70;;;;;;5019650;28;20602;-79
2023/08/16 11:24:38;;;;;;;10.73;9.67;;;30.40;60.70;;;;;;5027024;28;20435;-79
2023/08/16 11:27:08;;;;;;;13.23;8.57;;;30.60;59.90;;;;;;5033035;28;20503;-81
2023/08/16 11:29:34;;;;;;;15.33;9.30;;;30.80;59.90;;;;;;5026470;28;20196;-80
2023/08/16 11:32:00;;;;;;;12.13;9.07;;;31.10;58.90;;;;;;5024869;28;20456;-82
2023/08/16 11:34:30;;;;;;;12.33;8.87;;;30.50;59.50;;;;;;5027297;28;20436;-81
2023/08/16 11:36:55;;;;;;;12.83;8.93;;;30.80;59.50;;;;;;5030879;28;20214;-81
2023/08/16 11:39:23;;;;;;;11.37;8.80;;;31.20;59.30;;;;;;5032035;28;20519;-80
2023/08/16 11:41:50;;;;;;;11.27;7.70;;;31.60;58.80;;;;;;5027418;28;20210;-80
2023/08/16 11:44:15;;;;;;;13.17;8.90;;;31.90;57.20;;;;;;5028551;28;20461;-81
2023/08/16 11:46:48;;;;;;;8.90;7.20;;;32.00;57.40;;;;;;5038459;28;20454;-80
2023/08/16 11:49:18;;;;;;;11.73;8.60;;;32.10;56.60;;;;;;5017094;28;20190;-80
2023/08/16 11:51:46;;;;;;;10.20;7.50;;;32.20;56.50;;;;;;5024008;28;20457;-80
2023/08/16 11:54:21;;;;;;;10.70;8.07;;;32.30;56.20;;;;;;5031195;28;20477;-80
2023/08/16 11:56:47;;;;;;;12.10;7.80;;;31.90;57.00;;;;;;5038882;28;20456;-80
2023/08/16 11:59:26;;;;;;;11.03;8.10;;;32.10;56.60;;;;;;5029824;28;20952;-80
2023/08/16 12:01:54;;;;;;;15.40;8.30;;;32.40;56.20;;;;;;5018603;28;20570;-81
2023/08/16 12:04:21;;;;;;;15.73;7.07;;;32.70;55.70;;;;;;5024860;28;20429;-80
2023/08/16 12:06:47;;;;;;;9.80;7.47;;;33.00;54.40;;;;;;5026333;28;20496;-79
2023/08/16 12:09:16;;;;;;;8.83;7.20;;;33.00;54.10;;;;;;5026442;28;20925;-80
2023/08/16 12:11:41;;;;;;;9.43;7.10;;;33.20;53.70;;;;;;5020576;28;20202;-80
2023/08/16 12:14:07;;;;;;;7.60;6.97;;;33.10;53.60;;;;;;5025240;28;20436;-79
2023/08/16 12:16:33;;;;;;;9.30;7.97;;;33.50;53.30;;;;;;5021339;28;20195;-79
2023/08/16 12:18:59;;;;;;;13.27;8.57;;;33.30;53.40;;;;;;5030594;28;20190;-80
2023/08/16 12:21:24;;;;;;;9.73;8.13;;;32.40;54.90;;;;;;5022818;28;20465;-82
2023/08/16 12:23:51;;;;;;;11.43;8.37;;;32.00;55.40;;;;;;5029072;28;20193;-80
2023/08/16 12:26:19;;;;;;;11.17;7.33;;;31.70;56.80;;;;;;5028779;28;20196;-80
2023/08/16 12:28:48;;;;;;;10.80;7.93;;;32.10;56.20;;;;;;5026766;28;20431;-79
2023/08/16 12:31:14;;;;;;;9.23;7.77;;;31.90;56.60;;;;;;5024688;28;20468;-80
2023/08/16 12:33:41;;;;;;;11.70;7.57;;;32.00;56.40;;;;;;5030398;28;20435;-80
2023/08/16 12:36:08;;;;;;;11.50;7.90;;;31.70;57.20;;;;;;5028988;28;20468;-81
2023/08/16 12:38:34;;;;;;;10.17;7.30;;;31.40;57.80;;;;;;5031861;28;21713;-80
2023/08/16 12:41:00;;;;;;;15.90;7.73;;;31.50;57.70;;;;;;5027152;28;20552;-81